sensor_id;sensor_type;location;lat;lon;timestamp;P1;durP1;ratioP1;P2;durP2;ratioP2
11008;SDS011;5557;51.670;7.788;2024-01-15T00:00:37;47.87;;;32.90;;
11008;SDS011;5557;51.670;7.788;2024-01-15T00:03:05;51.30;;;35.00;;
11008;SDS011;5557;51.670;7.788;2024-01-15T00:05:32;49.57;;;34.50;;
11008;SDS011;5557;51.670;7.788;2024-01-15T00:07:59;50.40;;;36.50;;
11008;SDS011;5557;51.670;7.788;2024-01-15T00:10:26;47.27;;;35.37;;
11008;SDS011;5557;51.670;7.788;2024-01-15T00:12:53;49.00;;;36.67;;
11008;SDS011;5557;51.670;7.788;2024-01-15T00:15:20;49.90;;;37.20;;
11008;SDS011;5557;51.670;7.788;2024-01-15T00:17:48;56.67;;;39.67;;
11008;SDS011;5557;51.670;7.788;2024-01-15T00:20:15;57.30;;;39.23;;
11008;SDS011;5557;51.670;7.788;2024-01-15T00:22:42;54.83;;;39.17;;
11008;SDS011;5557;51.670;7.788;2024-01-15T00:25:09;61.80;;;40.70;;
11008;SDS011;5557;51.670;7.788;2024-01-15T00:27:37;60.37;;;40.20;;
11008;SDS011;5557;51.670;7.788;2024-01-15T00:30:04;53.77;;;39.97;;
11008;SDS011;5557;51.670;7.788;2024-01-15T00:32:33;57.50;;;40.57;;
11008;SDS011;5557;51.670;7.788;2024-01-15T00:35:00;58.20;;;38.60;;
11008;SDS011;5557;51.670;7.788;2024-01-15T00:37:28;56.53;;;39.33;;
11008;SDS011;5557;51.670;7.788;2024-01-15T00:39:55;55.00;;;39.53;;
11008;SDS011;5557;51.670;7.788;2024-01-15T00:42:22;64.27;;;40.23;;
11008;SDS011;5557;51.670;7.788;2024-01-15T00:44:49;62.47;;;41.60;;
11008;SDS011;5557;51.670;7.788;2024-01-15T00:47:17;50.80;;;36.87;;
11008;SDS011;5557;51.670;7.788;2024-01-15T00:49:45;53.63;;;37.20;;
11008;SDS011;5557;51.670;7.788;2024-01-15T00:52:12;57.30;;;37.50;;
11008;SDS011;5557;51.670;7.788;2024-01-15T00:54:39;46.00;;;32.80;;
11008;SDS011;5557;51.670;7.788;2024-01-15T00:57:06;51.93;;;35.30;;
11008;SDS011;5557;51.670;7.788;2024-01-15T00:59:33;48.40;;;34.40;;
11008;SDS011;5557;51.670;7.788;2024-01-15T01:02:00;43.83;;;32.70;;
11008;SDS011;5557;51.670;7.788;2024-01-15T01:04:28;45.23;;;31.03;;
11008;SDS011;5557;51.670;7.788;2024-01-15T01:06:56;43.80;;;30.83;;
11008;SDS011;5557;51.670;7.788;2024-01-15T01:09:23;44.30;;;31.40;;
11008;SDS011;5557;51.670;7.788;2024-01-15T01:11:51;51.40;;;30.73;;
11008;SDS011;5557;51.670;7.788;2024-01-15T01:14:18;50.37;;;32.50;;
11008;SDS011;5557;51.670;7.788;2024-01-15T01:16:45;46.90;;;31.00;;
11008;SDS011;5557;51.670;7.788;2024-01-15T01:19:12;43.87;;;29.57;;
11008;SDS011;5557;51.670;7.788;2024-01-15T01:21:39;47.47;;;32.20;;
11008;SDS011;5557;51.670;7.788;2024-01-15T01:24:06;46.57;;;30.87;;
11008;SDS011;5557;51.670;7.788;2024-01-15T01:26:33;44.30;;;29.53;;
11008;SDS011;5557;51.670;7.788;2024-01-15T01:29:00;46.43;;;30.70;;
11008;SDS011;5557;51.670;7.788;2024-01-15T01:31:27;43.33;;;29.90;;
11008;SDS011;5557;51.670;7.788;2024-01-15T01:33:58;39.87;;;27.47;;
11008;SDS011;5557;51.670;7.788;2024-01-15T01:36:30;43.97;;;29.00;;
11008;SDS011;5557;51.670;7.788;2024-01-15T01:38:59;42.83;;;28.80;;
11008;SDS011;5557;51.670;7.788;2024-01-15T01:41:26;48.63;;;31.37;;
11008;SDS011;5557;51.670;7.788;2024-01-15T01:43:52;46.13;;;30.73;;
11008;SDS011;5557;51.670;7.788;2024-01-15T01:46:20;48.77;;;31.77;;
11008;SDS011;5557;51.670;7.788;2024-01-15T01:48:47;44.23;;;29.47;;
11008;SDS011;5557;51.670;7.788;2024-01-15T01:51:14;41.47;;;28.40;;
11008;SDS011;5557;51.670;7.788;2024-01-15T01:53:43;44.83;;;27.73;;
11008;SDS011;5557;51.670;7.788;2024-01-15T01:56:11;46.77;;;29.77;;
11008;SDS011;5557;51.670;7.788;2024-01-15T01:58:40;45.63;;;28.90;;
11008;SDS011;5557;51.670;7.788;2024-01-15T02:01:07;47.03;;;27.90;;
11008;SDS011;5557;51.670;7.788;2024-01-15T02:03:35;45.73;;;27.07;;
11008;SDS011;5557;51.670;7.788;2024-01-15T02:06:02;39.53;;;25.53;;
11008;SDS011;5557;51.670;7.788;2024-01-15T02:08:30;38.43;;;23.70;;
11008;SDS011;5557;51.670;7.788;2024-01-15T02:10:57;39.93;;;26.10;;
11008;SDS011;5557;51.670;7.788;2024-01-15T02:13:24;33.23;;;23.80;;
11008;SDS011;5557;51.670;7.788;2024-01-15T02:15:50;45.50;;;24.73;;
11008;SDS011;5557;51.670;7.788;2024-01-15T02:18:18;38.93;;;24.30;;
11008;SDS011;5557;51.670;7.788;2024-01-15T02:20:45;41.53;;;24.97;;
11008;SDS011;5557;51.670;7.788;2024-01-15T02:23:12;40.60;;;25.13;;
11008;SDS011;5557;51.670;7.788;2024-01-15T02:25:41;42.63;;;27.90;;
11008;SDS011;5557;51.670;7.788;2024-01-15T02:28:15;49.40;;;29.17;;
11008;SDS011;5557;51.670;7.788;2024-01-15T02:30:44;39.80;;;26.87;;
11008;SDS011;5557;51.670;7.788;2024-01-15T02:33:14;40.23;;;27.83;;
11008;SDS011;5557;51.670;7.788;2024-01-15T02:35:45;38.73;;;25.97;;
11008;SDS011;5557;51.670;7.788;2024-01-15T02:38:13;36.70;;;26.17;;
11008;SDS011;5557;51.670;7.788;2024-01-15T02:40:39;37.10;;;26.63;;
11008;SDS011;5557;51.670;7.788;2024-01-15T02:43:06;44.13;;;27.40;;
11008;SDS011;5557;51.670;7.788;2024-01-15T02:45:34;35.43;;;26.63;;
11008;SDS011;5557;51.670;7.788;2024-01-15T02:48:01;38.57;;;25.90;;
11008;SDS011;5557;51.670;7.788;2024-01-15T02:50:28;39.20;;;27.30;;
11008;SDS011;5557;51.670;7.788;2024-01-15T02:52:55;36.80;;;25.37;;
11008;SDS011;5557;51.670;7.788;2024-01-15T02:55:21;39.93;;;27.23;;
11008;SDS011;5557;51.670;7.788;2024-01-15T02:57:48;41.23;;;28.00;;
11008;SDS011;5557;51.670;7.788;2024-01-15T03:00:16;38.93;;;26.53;;
11008;SDS011;5557;51.670;7.788;2024-01-15T03:02:44;36.37;;;26.17;;
11008;SDS011;5557;51.670;7.788;2024-01-15T03:05:14;42.37;;;27.23;;
11008;SDS011;5557;51.670;7.788;2024-01-15T03:07:41;36.23;;;27.27;;
11008;SDS011;5557;51.670;7.788;2024-01-15T03:10:08;34.07;;;24.57;;
11008;SDS011;5557;51.670;7.788;2024-01-15T03:12:36;40.00;;;26.87;;
11008;SDS011;5557;51.670;7.788;2024-01-15T03:15:03;35.40;;;27.47;;
11008;SDS011;5557;51.670;7.788;2024-01-15T03:17:30;40.07;;;26.77;;
11008;SDS011;5557;51.670;7.788;2024-01-15T03:19:58;42.03;;;27.77;;
11008;SDS011;5557;51.670;7.788;2024-01-15T03:22:25;45.70;;;30.97;;
11008;SDS011;5557;51.670;7.788;2024-01-15T03:24:52;42.00;;;28.97;;
11008;SDS011;5557;51.670;7.788;2024-01-15T03:27:19;40.80;;;28.47;;
11008;SDS011;5557;51.670;7.788;2024-01-15T03:29:46;42.80;;;29.40;;
11008;SDS011;5557;51.670;7.788;2024-01-15T03:32:13;44.30;;;28.10;;
11008;SDS011;5557;51.670;7.788;2024-01-15T03:34:45;43.27;;;27.80;;
11008;SDS011;5557;51.670;7.788;2024-01-15T03:37:14;42.27;;;28.27;;
11008;SDS011;5557;51.670;7.788;2024-01-15T03:39:41;43.40;;;27.30;;
11008;SDS011;5557;51.670;7.788;2024-01-15T03:42:08;42.87;;;27.73;;
11008;SDS011;5557;51.670;7.788;2024-01-15T03:44:37;44.27;;;28.07;;
11008;SDS011;5557;51.670;7.788;2024-01-15T03:47:04;35.63;;;26.33;;
11008;SDS011;5557;51.670;7.788;2024-01-15T03:49:31;34.43;;;26.23;;
11008;SDS011;5557;51.670;7.788;2024-01-15T03:51:58;34.80;;;25.50;;
11008;SDS011;5557;51.670;7.788;2024-01-15T03:54:26;41.27;;;25.57;;
11008;SDS011;5557;51.670;7.788;2024-01-15T03:56:53;29.67;;;23.70;;
11008;SDS011;5557;51.670;7.788;2024-01-15T03:59:20;39.17;;;26.27;;
11008;SDS011;5557;51.670;7.788;2024-01-15T04:01:50;36.80;;;26.13;;
11008;SDS011;5557;51.670;7.788;2024-01-15T04:04:17;40.87;;;25.50;;
11008;SDS011;5557;51.670;7.788;2024-01-15T04:06:45;36.60;;;26.07;;
11008;SDS011;5557;51.670;7.788;2024-01-15T04:09:15;33.90;;;22.80;;
11008;SDS011;5557;51.670;7.788;2024-01-15T04:11:42;31.20;;;23.70;;
11008;SDS011;5557;51.670;7.788;2024-01-15T04:14:09;39.63;;;27.60;;
11008;SDS011;5557;51.670;7.788;2024-01-15T04:16:37;36.37;;;25.27;;
11008;SDS011;5557;51.670;7.788;2024-01-15T04:19:04;33.17;;;24.60;;
11008;SDS011;5557;51.670;7.788;2024-01-15T04:21:33;33.47;;;24.60;;
11008;SDS011;5557;51.670;7.788;2024-01-15T04:24:00;33.60;;;24.07;;
11008;SDS011;5557;51.670;7.788;2024-01-15T04:26:26;42.83;;;24.90;;
11008;SDS011;5557;51.670;7.788;2024-01-15T04:28:56;32.93;;;23.83;;
11008;SDS011;5557;51.670;7.788;2024-01-15T04:31:25;30.03;;;23.60;;
11008;SDS011;5557;51.670;7.788;2024-01-15T04:33:54;31.23;;;24.10;;
11008;SDS011;5557;51.670;7.788;2024-01-15T04:36:24;32.83;;;25.27;;
11008;SDS011;5557;51.670;7.788;2024-01-15T04:38:52;28.50;;;21.80;;
11008;SDS011;5557;51.670;7.788;2024-01-15T04:41:21;32.93;;;22.77;;
11008;SDS011;5557;51.670;7.788;2024-01-15T04:43:48;32.47;;;22.07;;
11008;SDS011;5557;51.670;7.788;2024-01-15T04:46:18;30.63;;;23.77;;
11008;SDS011;5557;51.670;7.788;2024-01-15T04:48:48;31.00;;;22.77;;
11008;SDS011;5557;51.670;7.788;2024-01-15T04:51:18;39.23;;;24.93;;
11008;SDS011;5557;51.670;7.788;2024-01-15T04:53:45;33.37;;;23.53;;
11008;SDS011;5557;51.670;7.788;2024-01-15T04:56:12;30.80;;;23.87;;
11008;SDS011;5557;51.670;7.788;2024-01-15T04:58:39;31.93;;;24.07;;
11008;SDS011;5557;51.670;7.788;2024-01-15T05:01:09;29.17;;;22.23;;
11008;SDS011;5557;51.670;7.788;2024-01-15T05:03:38;32.43;;;24.00;;
11008;SDS011;5557;51.670;7.788;2024-01-15T05:06:08;31.50;;;21.80;;
11008;SDS011;5557;51.670;7.788;2024-01-15T05:08:37;33.77;;;22.10;;
11008;SDS011;5557;51.670;7.788;2024-01-15T05:11:04;31.50;;;21.97;;
11008;SDS011;5557;51.670;7.788;2024-01-15T05:13:31;33.60;;;22.70;;
11008;SDS011;5557;51.670;7.788;2024-01-15T05:15:58;29.23;;;23.07;;
11008;SDS011;5557;51.670;7.788;2024-01-15T05:18:25;26.63;;;22.23;;
11008;SDS011;5557;51.670;7.788;2024-01-15T05:20:57;23.97;;;20.90;;
11008;SDS011;5557;51.670;7.788;2024-01-15T05:23:24;23.23;;;19.17;;
11008;SDS011;5557;51.670;7.788;2024-01-15T05:25:51;30.87;;;20.23;;
11008;SDS011;5557;51.670;7.788;2024-01-15T05:28:20;24.23;;;19.50;;
11008;SDS011;5557;51.670;7.788;2024-01-15T05:30:47;25.90;;;19.17;;
11008;SDS011;5557;51.670;7.788;2024-01-15T05:33:15;23.13;;;18.60;;
11008;SDS011;5557;51.670;7.788;2024-01-15T05:35:45;24.57;;;19.50;;
11008;SDS011;5557;51.670;7.788;2024-01-15T05:38:12;20.73;;;17.03;;
11008;SDS011;5557;51.670;7.788;2024-01-15T05:40:39;25.87;;;18.93;;
11008;SDS011;5557;51.670;7.788;2024-01-15T05:43:06;33.20;;;18.90;;
11008;SDS011;5557;51.670;7.788;2024-01-15T05:45:37;26.87;;;18.40;;
11008;SDS011;5557;51.670;7.788;2024-01-15T05:48:05;20.17;;;17.70;;
11008;SDS011;5557;51.670;7.788;2024-01-15T05:50:32;22.20;;;17.27;;
11008;SDS011;5557;51.670;7.788;2024-01-15T05:52:59;20.47;;;18.23;;
11008;SDS011;5557;51.670;7.788;2024-01-15T05:55:26;25.13;;;17.80;;
11008;SDS011;5557;51.670;7.788;2024-01-15T05:57:53;26.80;;;17.30;;
11008;SDS011;5557;51.670;7.788;2024-01-15T06:00:20;19.20;;;16.47;;
11008;SDS011;5557;51.670;7.788;2024-01-15T06:02:47;17.87;;;15.97;;
11008;SDS011;5557;51.670;7.788;2024-01-15T06:05:14;22.77;;;16.20;;
11008;SDS011;5557;51.670;7.788;2024-01-15T06:07:41;25.87;;;16.87;;
11008;SDS011;5557;51.670;7.788;2024-01-15T06:10:08;18.80;;;16.30;;
11008;SDS011;5557;51.670;7.788;2024-01-15T06:12:35;19.97;;;16.30;;
11008;SDS011;5557;51.670;7.788;2024-01-15T06:15:02;20.90;;;17.10;;
11008;SDS011;5557;51.670;7.788;2024-01-15T06:17:29;22.83;;;17.17;;
11008;SDS011;5557;51.670;7.788;2024-01-15T06:19:57;21.40;;;18.17;;
11008;SDS011;5557;51.670;7.788;2024-01-15T06:22:25;20.03;;;18.00;;
11008;SDS011;5557;51.670;7.788;2024-01-15T06:24:52;22.20;;;17.97;;
11008;SDS011;5557;51.670;7.788;2024-01-15T06:27:19;25.20;;;19.20;;
11008;SDS011;5557;51.670;7.788;2024-01-15T06:29:46;29.07;;;20.57;;
11008;SDS011;5557;51.670;7.788;2024-01-15T06:32:16;24.67;;;20.53;;
11008;SDS011;5557;51.670;7.788;2024-01-15T06:34:44;38.90;;;22.07;;
11008;SDS011;5557;51.670;7.788;2024-01-15T06:37:11;22.43;;;20.00;;
11008;SDS011;5557;51.670;7.788;2024-01-15T06:39:38;26.63;;;21.40;;
11008;SDS011;5557;51.670;7.788;2024-01-15T06:42:06;24.83;;;20.90;;
11008;SDS011;5557;51.670;7.788;2024-01-15T06:44:33;36.93;;;22.80;;
11008;SDS011;5557;51.670;7.788;2024-01-15T06:47:00;26.03;;;21.63;;
11008;SDS011;5557;51.670;7.788;2024-01-15T06:49:29;29.80;;;21.40;;
11008;SDS011;5557;51.670;7.788;2024-01-15T06:51:56;34.93;;;23.17;;
11008;SDS011;5557;51.670;7.788;2024-01-15T06:54:23;30.30;;;21.17;;
11008;SDS011;5557;51.670;7.788;2024-01-15T06:56:52;26.83;;;21.70;;
11008;SDS011;5557;51.670;7.788;2024-01-15T06:59:19;30.17;;;21.27;;
11008;SDS011;5557;51.670;7.788;2024-01-15T07:01:46;32.33;;;22.30;;
11008;SDS011;5557;51.670;7.788;2024-01-15T07:04:13;28.47;;;21.77;;
11008;SDS011;5557;51.670;7.788;2024-01-15T07:06:40;25.00;;;20.43;;
11008;SDS011;5557;51.670;7.788;2024-01-15T07:09:07;29.00;;;21.50;;
11008;SDS011;5557;51.670;7.788;2024-01-15T07:11:35;28.20;;;22.50;;
11008;SDS011;5557;51.670;7.788;2024-01-15T07:14:02;25.60;;;21.90;;
11008;SDS011;5557;51.670;7.788;2024-01-15T07:16:29;30.00;;;23.53;;
11008;SDS011;5557;51.670;7.788;2024-01-15T07:19:03;30.47;;;22.93;;
11008;SDS011;5557;51.670;7.788;2024-01-15T07:21:31;26.70;;;22.10;;
11008;SDS011;5557;51.670;7.788;2024-01-15T07:23:58;28.07;;;22.70;;
11008;SDS011;5557;51.670;7.788;2024-01-15T07:26:25;31.93;;;22.67;;
11008;SDS011;5557;51.670;7.788;2024-01-15T07:28:52;31.47;;;24.30;;
11008;SDS011;5557;51.670;7.788;2024-01-15T07:31:19;25.83;;;21.77;;
11008;SDS011;5557;51.670;7.788;2024-01-15T07:33:47;26.70;;;22.13;;
11008;SDS011;5557;51.670;7.788;2024-01-15T07:36:17;29.80;;;24.50;;
11008;SDS011;5557;51.670;7.788;2024-01-15T07:38:44;31.90;;;23.40;;
11008;SDS011;5557;51.670;7.788;2024-01-15T07:41:13;40.00;;;22.47;;
11008;SDS011;5557;51.670;7.788;2024-01-15T07:43:40;31.47;;;22.73;;
11008;SDS011;5557;51.670;7.788;2024-01-15T07:46:07;28.03;;;24.10;;
11008;SDS011;5557;51.670;7.788;2024-01-15T07:48:34;38.47;;;24.90;;
11008;SDS011;5557;51.670;7.788;2024-01-15T07:51:01;33.47;;;23.30;;
11008;SDS011;5557;51.670;7.788;2024-01-15T07:53:30;31.33;;;23.87;;
11008;SDS011;5557;51.670;7.788;2024-01-15T07:55:57;28.50;;;23.40;;
11008;SDS011;5557;51.670;7.788;2024-01-15T07:58:24;27.63;;;22.63;;
11008;SDS011;5557;51.670;7.788;2024-01-15T08:00:52;37.07;;;23.43;;
11008;SDS011;5557;51.670;7.788;2024-01-15T08:03:19;33.33;;;23.53;;
11008;SDS011;5557;51.670;7.788;2024-01-15T08:05:46;29.17;;;22.90;;
11008;SDS011;5557;51.670;7.788;2024-01-15T08:08:13;28.90;;;21.57;;
11008;SDS011;5557;51.670;7.788;2024-01-15T08:10:40;30.30;;;21.33;;
11008;SDS011;5557;51.670;7.788;2024-01-15T08:13:07;25.03;;;21.57;;
11008;SDS011;5557;51.670;7.788;2024-01-15T08:15:35;21.80;;;19.50;;
11008;SDS011;5557;51.670;7.788;2024-01-15T08:18:03;22.03;;;19.73;;
11008;SDS011;5557;51.670;7.788;2024-01-15T08:20:30;24.27;;;19.73;;
11008;SDS011;5557;51.670;7.788;2024-01-15T08:22:57;28.00;;;22.40;;
11008;SDS011;5557;51.670;7.788;2024-01-15T08:25:24;26.57;;;21.40;;
11008;SDS011;5557;51.670;7.788;2024-01-15T08:27:52;26.87;;;21.77;;
11008;SDS011;5557;51.670;7.788;2024-01-15T08:30:19;32.33;;;21.20;;
11008;SDS011;5557;51.670;7.788;2024-01-15T08:32:48;23.43;;;20.27;;
11008;SDS011;5557;51.670;7.788;2024-01-15T08:35:15;25.63;;;19.87;;
11008;SDS011;5557;51.670;7.788;2024-01-15T08:37:42;22.10;;;19.30;;
11008;SDS011;5557;51.670;7.788;2024-01-15T08:40:10;27.30;;;19.40;;
11008;SDS011;5557;51.670;7.788;2024-01-15T08:42:37;22.03;;;18.63;;
11008;SDS011;5557;51.670;7.788;2024-01-15T08:45:04;23.90;;;19.37;;
11008;SDS011;5557;51.670;7.788;2024-01-15T08:47:32;21.40;;;17.20;;
11008;SDS011;5557;51.670;7.788;2024-01-15T08:49:59;20.27;;;17.60;;
11008;SDS011;5557;51.670;7.788;2024-01-15T08:52:26;19.17;;;17.00;;
11008;SDS011;5557;51.670;7.788;2024-01-15T08:54:54;18.17;;;16.30;;
11008;SDS011;5557;51.670;7.788;2024-01-15T08:57:21;17.93;;;16.13;;
11008;SDS011;5557;51.670;7.788;2024-01-15T08:59:48;17.50;;;14.00;;
11008;SDS011;5557;51.670;7.788;2024-01-15T09:02:16;15.77;;;13.47;;
11008;SDS011;5557;51.670;7.788;2024-01-15T09:04:43;16.23;;;12.77;;
11008;SDS011;5557;51.670;7.788;2024-01-15T09:07:10;15.90;;;12.40;;
11008;SDS011;5557;51.670;7.788;2024-01-15T09:09:36;14.53;;;10.43;;
11008;SDS011;5557;51.670;7.788;2024-01-15T09:12:04;10.47;;;9.77;;
11008;SDS011;5557;51.670;7.788;2024-01-15T09:14:31;9.20;;;8.70;;
11008;SDS011;5557;51.670;7.788;2024-01-15T09:17:03;11.33;;;10.50;;
11008;SDS011;5557;51.670;7.788;2024-01-15T09:19:31;11.90;;;11.00;;
11008;SDS011;5557;51.670;7.788;2024-01-15T09:21:59;12.67;;;11.53;;
11008;SDS011;5557;51.670;7.788;2024-01-15T09:24:26;23.50;;;20.53;;
11008;SDS011;5557;51.670;7.788;2024-01-15T09:26:54;14.57;;;13.37;;
11008;SDS011;5557;51.670;7.788;2024-01-15T09:29:22;15.67;;;13.77;;
11008;SDS011;5557;51.670;7.788;2024-01-15T09:31:50;15.27;;;13.87;;
11008;SDS011;5557;51.670;7.788;2024-01-15T09:34:21;14.60;;;13.20;;
11008;SDS011;5557;51.670;7.788;2024-01-15T09:36:49;14.13;;;12.90;;
11008;SDS011;5557;51.670;7.788;2024-01-15T09:39:17;13.70;;;12.40;;
11008;SDS011;5557;51.670;7.788;2024-01-15T09:41:45;11.90;;;11.10;;
11008;SDS011;5557;51.670;7.788;2024-01-15T09:44:14;11.47;;;10.47;;
11008;SDS011;5557;51.670;7.788;2024-01-15T09:46:41;12.63;;;11.20;;
11008;SDS011;5557;51.670;7.788;2024-01-15T09:49:10;11.87;;;10.97;;
11008;SDS011;5557;51.670;7.788;2024-01-15T09:51:38;11.87;;;10.73;;
11008;SDS011;5557;51.670;7.788;2024-01-15T09:54:06;11.33;;;10.43;;
11008;SDS011;5557;51.670;7.788;2024-01-15T09:56:35;13.10;;;12.00;;
11008;SDS011;5557;51.670;7.788;2024-01-15T09:59:02;14.30;;;13.10;;
11008;SDS011;5557;51.670;7.788;2024-01-15T10:01:32;13.13;;;12.03;;
11008;SDS011;5557;51.670;7.788;2024-01-15T10:04:03;14.10;;;12.73;;
11008;SDS011;5557;51.670;7.788;2024-01-15T10:06:30;15.73;;;13.40;;
11008;SDS011;5557;51.670;7.788;2024-01-15T10:08:57;14.97;;;13.70;;
11008;SDS011;5557;51.670;7.788;2024-01-15T10:11:24;17.73;;;15.63;;
11008;SDS011;5557;51.670;7.788;2024-01-15T10:13:52;15.87;;;14.37;;
11008;SDS011;5557;51.670;7.788;2024-01-15T10:16:23;17.10;;;15.40;;
11008;SDS011;5557;51.670;7.788;2024-01-15T10:18:50;17.10;;;15.43;;
11008;SDS011;5557;51.670;7.788;2024-01-15T10:21:18;15.93;;;14.40;;
11008;SDS011;5557;51.670;7.788;2024-01-15T10:23:45;18.70;;;15.03;;
11008;SDS011;5557;51.670;7.788;2024-01-15T10:26:13;15.43;;;13.70;;
11008;SDS011;5557;51.670;7.788;2024-01-15T10:28:45;14.40;;;13.10;;
11008;SDS011;5557;51.670;7.788;2024-01-15T10:31:18;12.37;;;11.33;;
11008;SDS011;5557;51.670;7.788;2024-01-15T10:33:51;13.60;;;12.37;;
11008;SDS011;5557;51.670;7.788;2024-01-15T10:36:22;14.10;;;12.77;;
11008;SDS011;5557;51.670;7.788;2024-01-15T10:39:01;12.03;;;11.07;;
11008;SDS011;5557;51.670;7.788;2024-01-15T10:41:29;12.10;;;11.00;;
11008;SDS011;5557;51.670;7.788;2024-01-15T10:43:56;10.83;;;10.00;;
11008;SDS011;5557;51.670;7.788;2024-01-15T10:46:24;11.50;;;9.50;;
11008;SDS011;5557;51.670;7.788;2024-01-15T10:48:52;9.80;;;9.10;;
11008;SDS011;5557;51.670;7.788;2024-01-15T10:51:20;9.03;;;8.30;;
11008;SDS011;5557;51.670;7.788;2024-01-15T10:53:48;7.90;;;7.40;;
11008;SDS011;5557;51.670;7.788;2024-01-15T10:56:15;7.07;;;6.67;;
11008;SDS011;5557;51.670;7.788;2024-01-15T10:58:43;7.30;;;6.90;;
11008;SDS011;5557;51.670;7.788;2024-01-15T11:01:11;7.53;;;6.80;;
11008;SDS011;5557;51.670;7.788;2024-01-15T11:03:40;7.23;;;6.73;;
11008;SDS011;5557;51.670;7.788;2024-01-15T11:06:26;9.00;;;8.50;;
11008;SDS011;5557;51.670;7.788;2024-01-15T11:09:07;9.50;;;8.73;;
11008;SDS011;5557;51.670;7.788;2024-01-15T11:11:35;9.00;;;8.50;;
11008;SDS011;5557;51.670;7.788;2024-01-15T11:14:06;7.90;;;7.50;;
11008;SDS011;5557;51.670;7.788;2024-01-15T11:19:22;6.50;;;6.10;;
11008;SDS011;5557;51.670;7.788;2024-01-15T11:21:49;5.30;;;5.10;;
11008;SDS011;5557;51.670;7.788;2024-01-15T11:24:35;5.03;;;4.83;;
11008;SDS011;5557;51.670;7.788;2024-01-15T11:27:07;4.60;;;4.40;;
11008;SDS011;5557;51.670;7.788;2024-01-15T11:29:36;5.10;;;4.80;;
11008;SDS011;5557;51.670;7.788;2024-01-15T11:32:10;5.20;;;4.73;;
11008;SDS011;5557;51.670;7.788;2024-01-15T11:34:58;4.37;;;4.17;;
11008;SDS011;5557;51.670;7.788;2024-01-15T11:40:22;6.10;;;5.80;;
11008;SDS011;5557;51.670;7.788;2024-01-15T11:43:10;5.00;;;4.80;;
11008;SDS011;5557;51.670;7.788;2024-01-15T11:45:39;5.30;;;5.10;;
11008;SDS011;5557;51.670;7.788;2024-01-15T11:48:14;7.60;;;6.90;;
11008;SDS011;5557;51.670;7.788;2024-01-15T11:50:47;6.83;;;6.33;;
11008;SDS011;5557;51.670;7.788;2024-01-15T11:53:17;6.73;;;6.03;;
11008;SDS011;5557;51.670;7.788;2024-01-15T11:56:03;6.03;;;5.63;;
11008;SDS011;5557;51.670;7.788;2024-01-15T11:58:38;6.43;;;6.00;;
11008;SDS011;5557;51.670;7.788;2024-01-15T12:01:05;6.00;;;5.50;;
11008;SDS011;5557;51.670;7.788;2024-01-15T12:03:32;5.50;;;5.10;;
11008;SDS011;5557;51.670;7.788;2024-01-15T12:06:05;5.50;;;5.00;;
11008;SDS011;5557;51.670;7.788;2024-01-15T12:08:33;5.30;;;5.00;;
11008;SDS011;5557;51.670;7.788;2024-01-15T12:11:04;4.73;;;4.43;;
11008;SDS011;5557;51.670;7.788;2024-01-15T12:13:37;4.37;;;4.13;;
11008;SDS011;5557;51.670;7.788;2024-01-15T12:16:04;4.43;;;4.23;;
11008;SDS011;5557;51.670;7.788;2024-01-15T12:18:31;4.87;;;4.33;;
11008;SDS011;5557;51.670;7.788;2024-01-15T12:20:59;4.33;;;3.60;;
11008;SDS011;5557;51.670;7.788;2024-01-15T12:23:26;3.93;;;3.73;;
11008;SDS011;5557;51.670;7.788;2024-01-15T12:25:54;4.50;;;4.17;;
11008;SDS011;5557;51.670;7.788;2024-01-15T12:28:21;4.00;;;3.80;;
11008;SDS011;5557;51.670;7.788;2024-01-15T12:30:49;5.10;;;4.63;;
11008;SDS011;5557;51.670;7.788;2024-01-15T12:33:17;7.73;;;4.07;;
11008;SDS011;5557;51.670;7.788;2024-01-15T12:35:47;3.57;;;3.37;;
11008;SDS011;5557;51.670;7.788;2024-01-15T12:38:14;4.80;;;3.63;;
11008;SDS011;5557;51.670;7.788;2024-01-15T12:40:43;4.07;;;3.77;;
11008;SDS011;5557;51.670;7.788;2024-01-15T12:43:12;3.77;;;3.57;;
11008;SDS011;5557;51.670;7.788;2024-01-15T12:45:40;3.30;;;3.00;;
11008;SDS011;5557;51.670;7.788;2024-01-15T12:48:07;5.83;;;2.50;;
11008;SDS011;5557;51.670;7.788;2024-01-15T12:50:35;4.10;;;3.07;;
11008;SDS011;5557;51.670;7.788;2024-01-15T12:53:02;3.10;;;2.87;;
11008;SDS011;5557;51.670;7.788;2024-01-15T12:55:29;5.03;;;2.67;;
11008;SDS011;5557;51.670;7.788;2024-01-15T12:57:56;2.80;;;2.70;;
11008;SDS011;5557;51.670;7.788;2024-01-15T13:00:24;2.43;;;2.33;;
11008;SDS011;5557;51.670;7.788;2024-01-15T13:02:52;2.90;;;2.80;;
11008;SDS011;5557;51.670;7.788;2024-01-15T13:05:21;5.80;;;2.70;;
11008;SDS011;5557;51.670;7.788;2024-01-15T13:07:50;3.73;;;2.80;;
11008;SDS011;5557;51.670;7.788;2024-01-15T13:10:17;3.77;;;3.47;;
11008;SDS011;5557;51.670;7.788;2024-01-15T13:12:44;2.93;;;2.70;;
11008;SDS011;5557;51.670;7.788;2024-01-15T13:15:11;5.90;;;2.90;;
11008;SDS011;5557;51.670;7.788;2024-01-15T13:17:40;3.00;;;2.80;;
11008;SDS011;5557;51.670;7.788;2024-01-15T13:20:09;3.40;;;3.10;;
11008;SDS011;5557;51.670;7.788;2024-01-15T13:22:38;5.13;;;3.50;;
11008;SDS011;5557;51.670;7.788;2024-01-15T13:25:06;3.90;;;3.63;;
11008;SDS011;5557;51.670;7.788;2024-01-15T13:27:35;8.70;;;5.47;;
11008;SDS011;5557;51.670;7.788;2024-01-15T13:32:35;4.13;;;3.93;;
11008;SDS011;5557;51.670;7.788;2024-01-15T13:35:06;5.00;;;4.40;;
11008;SDS011;5557;51.670;7.788;2024-01-15T13:37:37;4.63;;;4.33;;
11008;SDS011;5557;51.670;7.788;2024-01-15T13:40:10;5.87;;;4.77;;
11008;SDS011;5557;51.670;7.788;2024-01-15T13:42:46;5.50;;;4.97;;
11008;SDS011;5557;51.670;7.788;2024-01-15T13:45:14;6.77;;;4.20;;
11008;SDS011;5557;51.670;7.788;2024-01-15T13:47:41;4.00;;;3.70;;
11008;SDS011;5557;51.670;7.788;2024-01-15T13:50:10;4.10;;;3.80;;
11008;SDS011;5557;51.670;7.788;2024-01-15T13:52:37;3.80;;;3.60;;
11008;SDS011;5557;51.670;7.788;2024-01-15T13:55:04;4.63;;;4.33;;
11008;SDS011;5557;51.670;7.788;2024-01-15T13:57:32;3.97;;;3.57;;
11008;SDS011;5557;51.670;7.788;2024-01-15T13:59:59;3.77;;;3.43;;
11008;SDS011;5557;51.670;7.788;2024-01-15T14:02:27;3.57;;;3.27;;
11008;SDS011;5557;51.670;7.788;2024-01-15T14:04:54;6.00;;;3.30;;
11008;SDS011;5557;51.670;7.788;2024-01-15T14:07:21;4.40;;;2.70;;
11008;SDS011;5557;51.670;7.788;2024-01-15T14:09:48;2.80;;;2.60;;
11008;SDS011;5557;51.670;7.788;2024-01-15T14:12:15;3.17;;;2.83;;
11008;SDS011;5557;51.670;7.788;2024-01-15T14:14:42;2.60;;;2.40;;
11008;SDS011;5557;51.670;7.788;2024-01-15T14:17:09;2.40;;;1.83;;
11008;SDS011;5557;51.670;7.788;2024-01-15T14:19:36;1.73;;;1.63;;
11008;SDS011;5557;51.670;7.788;2024-01-15T14:22:03;4.80;;;2.17;;
11008;SDS011;5557;51.670;7.788;2024-01-15T14:24:30;2.00;;;1.80;;
11008;SDS011;5557;51.670;7.788;2024-01-15T14:26:58;4.80;;;2.67;;
11008;SDS011;5557;51.670;7.788;2024-01-15T14:29:25;2.37;;;2.03;;
11008;SDS011;5557;51.670;7.788;2024-01-15T14:31:53;4.50;;;2.13;;
11008;SDS011;5557;51.670;7.788;2024-01-15T14:34:21;4.20;;;1.80;;
11008;SDS011;5557;51.670;7.788;2024-01-15T14:36:53;1.50;;;1.40;;
11008;SDS011;5557;51.670;7.788;2024-01-15T14:39:22;1.47;;;1.20;;
11008;SDS011;5557;51.670;7.788;2024-01-15T14:41:50;2.23;;;1.73;;
11008;SDS011;5557;51.670;7.788;2024-01-15T14:44:17;2.43;;;1.87;;
11008;SDS011;5557;51.670;7.788;2024-01-15T14:46:44;2.50;;;2.40;;
11008;SDS011;5557;51.670;7.788;2024-01-15T14:49:12;2.70;;;2.13;;
11008;SDS011;5557;51.670;7.788;2024-01-15T14:51:41;1.87;;;1.77;;
11008;SDS011;5557;51.670;7.788;2024-01-15T14:54:08;5.40;;;2.13;;